createdAt,value
2022-11-12T00:03:15.900Z,13.99
2022-11-12T00:06:37.365Z,14.10
2022-11-12T00:09:58.193Z,14.03
2022-11-12T00:13:18.887Z,13.92
2022-11-12T00:16:39.287Z,14.11
2022-11-12T00:19:59.983Z,14.08
2022-11-12T00:23:22.287Z,14.13
2022-11-12T00:26:45.197Z,13.79
2022-11-12T00:30:11.830Z,13.71
2022-11-12T00:33:38.836Z,13.67
2022-11-12T00:37:00.627Z,13.65
2022-11-12T00:40:22.045Z,13.65
2022-11-12T00:43:42.900Z,13.43
2022-11-12T00:47:04.616Z,13.50
2022-11-12T00:50:26.355Z,13.41
2022-11-12T00:53:55.856Z,13.39
2022-11-12T00:57:16.604Z,13.44
2022-11-12T01:00:38.207Z,13.76
2022-11-12T01:04:00.262Z,13.72
2022-11-12T01:07:21.114Z,13.85
2022-11-12T01:10:41.912Z,13.67
2022-11-12T01:14:06.397Z,13.74
2022-11-12T01:17:28.753Z,13.73
2022-11-12T01:20:50.093Z,13.84
2022-11-12T01:24:10.642Z,13.54
2022-11-12T01:27:38.591Z,13.47
2022-11-12T01:31:21.012Z,13.38
2022-11-12T01:34:42.639Z,13.40
2022-11-12T01:38:03.789Z,13.38
2022-11-12T01:41:31.262Z,13.38
2022-11-12T01:44:53.206Z,13.43
2022-11-12T01:48:27.144Z,13.59
2022-11-12T01:51:52.128Z,13.83
2022-11-12T01:55:20.428Z,13.76
2022-11-12T01:58:42.939Z,13.68
2022-11-12T02:02:05.136Z,13.74
2022-11-12T02:05:30.243Z,13.56
2022-11-12T02:08:52.210Z,13.69
2022-11-12T02:12:32.921Z,13.52
2022-11-12T02:15:53.644Z,13.33
2022-11-12T02:19:17.077Z,13.23
2022-11-12T02:22:40.850Z,13.10
2022-11-12T02:26:02.185Z,13.15
2022-11-12T02:29:23.244Z,13.03
2022-11-12T02:32:44.070Z,12.91
2022-11-12T02:36:05.641Z,13.07
2022-11-12T02:39:29.618Z,13.41
2022-11-12T02:42:50.473Z,13.50
2022-11-12T02:46:13.656Z,13.58
2022-11-12T02:49:35.332Z,13.67
2022-11-12T02:52:57.521Z,13.31
2022-11-12T02:56:17.698Z,13.89
2022-11-12T02:59:41.432Z,15.63
2022-11-12T03:03:02.776Z,16.57
2022-11-12T03:06:23.590Z,17.31
2022-11-12T03:09:45.265Z,16.35
2022-11-12T03:13:06.752Z,15.44
2022-11-12T03:16:27.524Z,14.96
2022-11-12T03:19:48.466Z,14.42
2022-11-12T03:23:11.992Z,14.33
2022-11-12T03:26:36.074Z,14.09
2022-11-12T03:29:57.109Z,13.91
2022-11-12T03:33:19.442Z,13.72
2022-11-12T03:36:40.480Z,13.80
2022-11-12T03:40:00.942Z,13.67
2022-11-12T03:43:21.716Z,13.63
2022-11-12T03:46:44.324Z,13.52
2022-11-12T03:50:06.795Z,13.40
2022-11-12T03:53:27.516Z,13.55
2022-11-12T03:56:48.397Z,13.39
2022-11-12T04:00:11.213Z,12.99
2022-11-12T04:03:32.345Z,12.69
2022-11-12T04:07:12.552Z,12.79
2022-11-12T04:10:33.503Z,12.86
2022-11-12T04:13:54.638Z,12.88
2022-11-12T04:17:36.207Z,12.74
2022-11-12T04:21:16.860Z,13.07
2022-11-12T04:24:58.836Z,13.33
2022-11-12T04:28:20.955Z,12.92
2022-11-12T04:31:41.972Z,12.77
2022-11-12T04:35:04.773Z,12.74
2022-11-12T04:38:25.921Z,12.65
2022-11-12T04:42:05.729Z,12.66
2022-11-12T04:45:26.308Z,12.68
2022-11-12T04:48:46.834Z,12.65
2022-11-12T04:52:07.653Z,12.75
2022-11-12T04:55:28.870Z,13.20
2022-11-12T04:58:51.661Z,13.18
2022-11-12T05:02:12.489Z,13.24
2022-11-12T05:05:34.240Z,13.10
2022-11-12T05:08:55.845Z,13.59
2022-11-12T05:12:16.460Z,13.83
2022-11-12T05:15:37.018Z,13.60
2022-11-12T05:18:57.490Z,13.55
2022-11-12T05:22:42.157Z,13.43
2022-11-12T05:26:01.137Z,13.14
2022-11-12T05:29:24.444Z,13.21
2022-11-12T05:32:45.118Z,13.63
2022-11-12T05:36:06.545Z,13.86
2022-11-12T05:39:27.490Z,14.23
2022-11-12T05:42:49.581Z,14.22
2022-11-12T05:46:10.280Z,14.57
2022-11-12T05:49:30.911Z,14.93
2022-11-12T05:52:52.534Z,14.52
2022-11-12T05:56:15.359Z,14.14
2022-11-12T05:59:35.995Z,14.10
2022-11-12T06:02:59.886Z,13.97
2022-11-12T06:06:20.511Z,14.02
2022-11-12T06:09:41.494Z,13.86
2022-11-12T06:13:01.977Z,13.93
2022-11-12T06:16:22.459Z,13.78
2022-11-12T06:19:44.696Z,13.77
2022-11-12T06:23:06.662Z,13.71
2022-11-12T06:26:29.095Z,13.63
2022-11-12T06:29:49.858Z,13.74
2022-11-12T06:33:10.929Z,13.67
2022-11-12T06:36:34.850Z,13.60
2022-11-12T06:40:00.557Z,13.56
2022-11-12T06:43:21.866Z,13.56
2022-11-12T06:46:42.377Z,13.57
2022-11-12T06:50:03.275Z,13.58
2022-11-12T06:53:24.395Z,13.50
2022-11-12T06:56:44.800Z,13.98
2022-11-12T07:00:06.241Z,14.21
2022-11-12T07:03:26.618Z,14.40
2022-11-12T07:06:47.428Z,14.14
2022-11-12T07:10:09.241Z,14.42
2022-11-12T07:13:32.866Z,14.57
2022-11-12T07:16:53.453Z,14.90
2022-11-12T07:20:15.613Z,14.88
2022-11-12T07:23:37.213Z,15.01
2022-11-12T07:26:58.581Z,15.02
2022-11-12T07:30:19.803Z,14.95
2022-11-12T07:33:41.676Z,14.91
2022-11-12T07:37:03.187Z,14.87
2022-11-12T07:40:23.574Z,14.92
2022-11-12T07:43:46.007Z,14.93
2022-11-12T07:47:06.642Z,14.75
2022-11-12T07:50:27.478Z,14.85
2022-11-12T07:53:49.446Z,14.95
2022-11-12T07:57:10.172Z,14.82
2022-11-12T08:00:30.653Z,14.95
2022-11-12T08:03:51.516Z,15.02
2022-11-12T08:07:13.065Z,14.88
2022-11-12T08:10:35.132Z,14.75
2022-11-12T08:13:55.795Z,14.77
2022-11-12T08:17:16.613Z,14.61
2022-11-12T08:20:37.383Z,14.65
2022-11-12T08:23:58.282Z,14.68
2022-11-12T08:27:19.053Z,14.54
2022-11-12T08:30:39.792Z,14.55
2022-11-12T08:34:12.448Z,14.53
2022-11-12T08:37:36.734Z,14.54
2022-11-12T08:41:04.028Z,14.61
2022-11-12T08:44:24.432Z,14.43
2022-11-12T08:47:44.996Z,14.52
2022-11-12T08:51:16.438Z,14.46
2022-11-12T08:54:37.385Z,14.49
2022-11-12T08:58:06.776Z,14.73
2022-11-12T09:01:27.489Z,14.83
2022-11-12T09:04:48.324Z,14.76
2022-11-12T09:08:14.637Z,14.88
2022-11-12T09:11:35.329Z,14.75
2022-11-12T09:15:09.649Z,14.59
2022-11-12T09:18:37.968Z,14.81
2022-11-12T09:22:02.028Z,14.80
2022-11-12T09:25:22.450Z,14.78
2022-11-12T09:28:43.336Z,14.76
2022-11-12T09:32:04.207Z,14.80
2022-11-12T09:35:24.989Z,14.84
2022-11-12T09:38:45.524Z,14.85
2022-11-12T09:42:08.423Z,14.89
2022-11-12T09:45:32.714Z,14.92
2022-11-12T09:49:08.268Z,14.90
2022-11-12T09:52:30.547Z,14.96
2022-11-12T09:55:51.232Z,14.91
2022-11-12T09:59:13.377Z,14.94
2022-11-12T10:02:47.572Z,14.82
2022-11-12T10:06:21.768Z,14.88
2022-11-12T10:09:48.247Z,14.89
2022-11-12T10:13:15.133Z,14.93
2022-11-12T10:16:55.906Z,15.00
2022-11-12T10:20:30.234Z,14.97
2022-11-12T10:23:56.323Z,15.03
2022-11-12T10:27:24.674Z,15.20
2022-11-12T10:30:46.275Z,15.78
2022-11-12T10:34:15.526Z,15.85
2022-11-12T10:37:56.887Z,16.99
2022-11-12T10:41:22.486Z,16.95
2022-11-12T10:44:43.669Z,16.91
2022-11-12T10:48:04.513Z,17.16
2022-11-12T10:51:31.997Z,17.13
2022-11-12T10:55:04.113Z,17.12
2022-11-12T10:58:25.455Z,17.03
2022-11-12T11:01:54.018Z,17.03
2022-11-12T11:05:33.777Z,16.88
2022-11-12T11:09:14.444Z,16.84
2022-11-12T11:12:35.742Z,16.92
2022-11-12T11:16:02.404Z,16.75
2022-11-12T11:19:23.490Z,16.82
2022-11-12T11:22:46.939Z,16.82
2022-11-12T11:26:31.315Z,16.78
2022-11-12T11:30:00.571Z,16.84
2022-11-12T11:33:24.194Z,16.85
2022-11-12T11:37:10.134Z,16.92
2022-11-12T11:40:37.306Z,16.74
2022-11-12T11:44:17.269Z,16.82
2022-11-12T11:48:02.269Z,16.77
2022-11-12T11:52:05.793Z,16.75
2022-11-12T11:55:54.416Z,16.73
2022-11-12T11:59:33.695Z,16.73
2022-11-12T12:03:24.042Z,16.65
2022-11-12T12:06:59.743Z,16.60
2022-11-12T12:15:02.030Z,16.61
2022-11-12T12:18:46.896Z,16.57
2022-11-12T12:22:17.770Z,16.44
2022-11-12T12:25:41.510Z,16.35
2022-11-12T12:29:31.624Z,16.34
2022-11-12T12:33:08.553Z,16.27
2022-11-12T12:36:36.778Z,16.23
2022-11-12T12:40:15.298Z,16.23
2022-11-12T12:44:01.501Z,16.19
2022-11-12T12:47:26.529Z,16.20
2022-11-12T12:50:49.041Z,16.24
2022-11-12T12:54:34.627Z,16.26
2022-11-12T12:58:00.986Z,16.23
2022-11-12T13:01:21.611Z,16.32
2022-11-12T13:04:56.938Z,16.33
2022-11-12T13:08:25.532Z,16.34
2022-11-12T13:12:06.346Z,16.36
2022-11-12T13:15:45.756Z,16.27
2022-11-12T13:19:07.823Z,16.26
2022-11-12T13:22:28.219Z,16.27
2022-11-12T13:25:48.874Z,16.29
2022-11-12T13:29:22.016Z,16.31
2022-11-12T13:32:48.719Z,16.38
2022-11-12T13:36:26.115Z,16.32
2022-11-12T13:39:46.738Z,16.31
2022-11-12T13:43:19.087Z,16.38
2022-11-12T13:46:39.914Z,16.34
2022-11-12T13:50:02.038Z,16.37
2022-11-12T13:53:26.570Z,16.36
2022-11-12T13:56:47.004Z,16.35
2022-11-12T14:00:26.957Z,16.30
2022-11-12T14:03:51.179Z,16.26
2022-11-12T14:07:46.007Z,16.31
2022-11-12T14:11:16.428Z,16.25
2022-11-12T14:15:00.901Z,16.16
2022-11-12T14:18:41.730Z,16.30
2022-11-12T14:22:14.143Z,16.32
2022-11-12T14:25:34.646Z,16.24
2022-11-12T14:28:59.474Z,16.09
2022-11-12T14:32:20.051Z,15.98
2022-11-12T14:35:40.868Z,15.96
2022-11-12T14:39:01.515Z,15.84
2022-11-12T14:42:22.100Z,15.77
2022-11-12T14:45:48.862Z,15.77
2022-11-12T14:49:34.147Z,15.75
2022-11-12T14:53:09.622Z,15.74
2022-11-12T14:56:39.125Z,15.64
2022-11-12T14:59:59.658Z,15.55
2022-11-12T15:03:26.583Z,15.54
2022-11-12T15:06:56.428Z,15.54
2022-11-12T15:10:35.846Z,15.57
2022-11-12T15:14:01.124Z,15.71
2022-11-12T15:17:34.689Z,15.88
2022-11-12T15:21:10.919Z,16.02
2022-11-12T15:24:34.619Z,16.07
2022-11-12T15:27:55.364Z,16.14
2022-11-12T15:31:20.200Z,16.14
2022-11-12T15:34:41.909Z,16.12
2022-11-12T15:38:06.967Z,16.12
2022-11-12T15:41:34.004Z,16.13
2022-11-12T15:45:03.489Z,16.06
2022-11-12T15:48:23.888Z,16.11
2022-11-12T15:51:44.263Z,16.07
2022-11-12T15:55:05.156Z,16.02
2022-11-12T15:58:33.403Z,15.97
2022-11-12T16:01:54.244Z,15.99
2022-11-12T16:05:17.231Z,15.94
2022-11-12T16:08:37.794Z,15.86
2022-11-12T16:11:59.095Z,15.82
2022-11-12T16:15:25.657Z,15.76
2022-11-12T16:18:46.496Z,15.69
2022-11-12T16:22:12.696Z,15.67
2022-11-12T16:25:36.403Z,15.64
2022-11-12T16:28:57.803Z,15.63
2022-11-12T16:32:18.019Z,15.32
2022-11-12T16:35:39.124Z,15.49
2022-11-12T16:38:59.572Z,15.47
2022-11-12T16:42:19.899Z,15.48
2022-11-12T16:45:42.820Z,15.43
2022-11-12T16:49:03.523Z,15.28
2022-11-12T16:52:24.023Z,15.27
2022-11-12T16:55:44.716Z,15.20
2022-11-12T16:59:05.779Z,15.14
2022-11-12T17:02:26.508Z,15.05
2022-11-12T17:05:52.750Z,14.97
2022-11-12T17:09:16.742Z,14.96
2022-11-12T17:12:37.594Z,14.94
2022-11-12T17:15:58.819Z,14.84
2022-11-12T17:19:19.365Z,14.92
2022-11-12T17:22:40.137Z,14.79
2022-11-12T17:26:02.212Z,14.74
2022-11-12T17:29:22.568Z,14.83
2022-11-12T17:32:42.890Z,14.83
2022-11-12T17:36:05.043Z,14.77
2022-11-12T17:39:25.845Z,14.81
2022-11-12T17:42:46.389Z,14.66
2022-11-12T17:46:08.852Z,14.61
2022-11-12T17:49:29.369Z,14.36
2022-11-12T17:52:50.002Z,14.50
2022-11-12T17:56:13.017Z,14.50
2022-11-12T17:59:33.816Z,14.46
2022-11-12T18:02:57.761Z,14.52
2022-11-12T18:06:25.917Z,14.53
2022-11-12T18:09:46.360Z,14.58
2022-11-12T18:13:06.719Z,14.62
2022-11-12T18:16:29.266Z,14.61
2022-11-12T18:19:49.928Z,14.53
2022-11-12T18:23:10.546Z,14.47
2022-11-12T18:26:31.110Z,14.34
2022-11-12T18:29:51.452Z,14.53
2022-11-12T18:33:12.294Z,14.58
2022-11-12T18:36:33.125Z,14.59
2022-11-12T18:39:53.502Z,14.52
2022-11-12T18:43:15.473Z,14.49
2022-11-12T18:46:36.115Z,14.35
2022-11-12T18:49:56.752Z,14.36
2022-11-12T18:53:17.247Z,14.35
2022-11-12T18:56:38.337Z,14.32
2022-11-12T18:59:59.221Z,14.21
2022-11-12T19:03:20.083Z,14.16
2022-11-12T19:06:40.800Z,14.18
2022-11-12T19:10:14.703Z,14.20
2022-11-12T19:13:36.326Z,14.29
2022-11-12T19:16:57.441Z,14.26
2022-11-12T19:20:17.594Z,14.16
2022-11-12T19:23:38.854Z,14.14
2022-11-12T19:26:59.308Z,14.11
2022-11-12T19:30:19.838Z,14.02
2022-11-12T19:33:40.249Z,13.88
2022-11-12T19:40:42.524Z,14.01
2022-11-12T19:44:02.836Z,13.89
2022-11-12T19:47:23.365Z,13.91
2022-11-12T19:50:43.790Z,13.98
2022-11-12T19:54:04.833Z,13.84
2022-11-12T19:57:27.156Z,13.68
2022-11-12T20:00:47.777Z,13.54
2022-11-12T20:04:08.229Z,13.55
2022-11-12T20:07:28.919Z,13.33
2022-11-12T20:10:49.573Z,13.50
2022-11-12T20:14:10.553Z,13.59
2022-11-12T20:17:33.232Z,13.52
2022-11-12T20:20:56.275Z,13.49
2022-11-12T20:24:16.792Z,13.35
2022-11-12T20:27:37.430Z,13.38
2022-11-12T20:31:09.894Z,13.35
2022-11-12T20:34:30.508Z,13.37
2022-11-12T20:37:53.298Z,13.35
2022-11-12T20:41:16.870Z,13.43
2022-11-12T20:44:37.173Z,13.37
2022-11-12T20:47:57.864Z,13.41
2022-11-12T20:51:25.346Z,13.36
2022-11-12T20:54:46.308Z,13.34
2022-11-12T20:58:07.064Z,13.33
2022-11-12T21:01:29.378Z,13.27
2022-11-12T21:04:49.745Z,13.20
2022-11-12T21:08:09.982Z,13.18
2022-11-12T21:11:30.580Z,13.29
2022-11-12T21:14:51.493Z,13.25
2022-11-12T21:18:12.168Z,13.33
2022-11-12T21:21:32.506Z,13.21
2022-11-12T21:24:53.019Z,13.16
2022-11-12T21:28:13.760Z,13.25
2022-11-12T21:31:34.140Z,13.22
2022-11-12T21:34:55.835Z,13.22
2022-11-12T21:38:16.288Z,13.30
2022-11-12T21:41:36.745Z,13.31
2022-11-12T21:44:57.237Z,13.27
2022-11-12T21:48:17.585Z,13.31
2022-11-12T21:51:38.086Z,13.23
2022-11-12T21:54:58.605Z,13.21
2022-11-12T21:58:19.250Z,13.15
2022-11-12T22:01:40.785Z,12.99
2022-11-12T22:05:01.062Z,13.07
2022-11-12T22:08:21.479Z,12.76
2022-11-12T22:11:42.102Z,13.00
2022-11-12T22:15:02.622Z,13.05
2022-11-12T22:18:23.406Z,13.01
2022-11-12T22:21:43.871Z,12.96
2022-11-12T22:25:07.199Z,12.89
2022-11-12T22:28:27.976Z,12.87
2022-11-12T22:31:48.442Z,13.06
2022-11-12T22:35:09.589Z,13.15
2022-11-12T22:38:37.995Z,13.07
2022-11-12T22:41:58.541Z,13.11
2022-11-12T22:45:18.917Z,13.03
2022-11-12T22:48:40.066Z,13.13
2022-11-12T22:52:00.667Z,13.13
2022-11-12T22:55:21.589Z,12.99
2022-11-12T22:58:44.631Z,12.97
2022-11-12T23:02:07.970Z,12.82
2022-11-12T23:05:28.405Z,12.74
2022-11-12T23:08:49.263Z,12.84
2022-11-12T23:12:09.968Z,12.86
2022-11-12T23:15:31.092Z,12.85
2022-11-12T23:18:52.963Z,12.80
2022-11-12T23:22:13.497Z,13.08
2022-11-12T23:25:34.668Z,13.12
2022-11-12T23:28:55.356Z,13.01
2022-11-12T23:32:15.802Z,12.97
2022-11-12T23:35:36.336Z,12.90
2022-11-12T23:38:58.032Z,12.92
2022-11-12T23:42:18.447Z,12.92
2022-11-12T23:45:38.820Z,12.79
2022-11-12T23:48:59.610Z,12.64
2022-11-12T23:52:19.909Z,12.45
2022-11-12T23:55:44.055Z,12.41
2022-11-12T23:59:04.333Z,12.41
